Time;durP1;ratioP1;P1;durP2;ratioP2;P2;SDS_P1;SDS_P2;PMS_P1;PMS_P2;Temp;Humidity;BMP_temperature;BMP_pressure;BME280_temperature;BME280_humidity;BME280_pressure;Samples;Min_cycle;Max_cycle;Signal;HPM_P1;HPM_P2
2023/08/24 00:00:16;;;;;;;4.53;4.22;;;;;;;;;;4992412;28;20214;-75
2023/08/24 00:02:42;;;;;;;4.50;4.10;;;;;;;;;;4992221;28;20253;-75
2023/08/24 00:05:08;;;;;;;6.03;4.20;;;;;;;;;;4992439;28;20230;-74
2023/08/24 00:07:35;;;;;;;5.63;4.70;;;;;;;;;;4992140;28;20716;-75
2023/08/24 00:10:01;;;;;;;5.10;4.32;;;;;;;;;;4992171;28;20210;-75
2023/08/24 00:12:27;;;;;;;4.80;4.22;;;;;;;;;;4992304;28;20221;-75
2023/08/24 00:14:55;;;;;;;5.80;4.20;;;;;;;;;;4992187;28;20210;-74
2023/08/24 00:17:22;;;;;;;6.10;4.70;;;;;;;;;;4992302;28;20210;-74
2023/08/24 00:19:49;;;;;;;4.90;4.45;;;;;;;;;;4992100;28;20337;-75
2023/08/24 00:22:15;;;;;;;5.60;4.82;;;;;;;;;;4992191;28;20641;-75
2023/08/24 00:24:42;;;;;;;5.13;4.68;;;;;;;;;;4995714;28;20229;-75
2023/08/24 00:27:08;;;;;;;5.68;4.75;;;;;;;;;;4998596;28;20198;-75
2023/08/24 00:29:34;;;;;;;5.82;5.15;;;;;;;;;;4998029;28;20226;-75
2023/08/24 00:32:03;;;;;;;5.82;4.80;;;;;;;;;;4998771;28;20221;-74
2023/08/24 00:34:29;;;;;;;6.53;4.90;;;;;;;;;;4998730;28;20679;-75
2023/08/24 00:36:55;;;;;;;5.43;4.93;;;;;;;;;;4998529;28;20214;-75
2023/08/24 00:39:22;;;;;;;4.97;4.47;;;;;;;;;;4998398;28;20234;-75
2023/08/24 00:41:48;;;;;;;5.70;5.10;;;;;;;;;;4998383;28;20226;-75
2023/08/24 00:44:14;;;;;;;4.82;4.43;;;;;;;;;;4998237;28;20218;-76
2023/08/24 00:46:41;;;;;;;5.57;4.75;;;;;;;;;;4998412;28;20617;-74
2023/08/24 00:49:09;;;;;;;5.10;4.70;;;;;;;;;;4998068;28;20219;-75
2023/08/24 00:51:35;;;;;;;5.13;4.63;;;;;;;;;;4998302;28;20203;-75
2023/08/24 00:54:01;;;;;;;5.40;5.00;;;;;;;;;;4998467;28;20630;-74
2023/08/24 00:56:29;;;;;;;6.57;4.75;;;;;;;;;;4998302;28;20612;-74
2023/08/24 00:58:57;;;;;;;5.05;4.55;;;;;;;;;;4997866;28;20262;-75
2023/08/24 01:01:24;;;;;;;7.57;4.90;;;;;;;;;;4998468;28;20214;-74
2023/08/24 01:03:50;;;;;;;7.80;4.82;;;;;;;;;;4998336;28;20602;-74
2023/08/24 01:06:18;;;;;;;7.38;4.80;;;;;;;;;;4998384;28;20211;-75
2023/08/24 01:08:44;;;;;;;7.13;4.65;;;;;;;;;;4998033;28;20223;-75
2023/08/24 01:11:15;;;;;;;4.80;4.40;;;;;;;;;;4998113;28;20210;-75
2023/08/24 01:13:46;;;;;;;5.60;4.45;;;;;;;;;;4998348;28;20213;-75
2023/08/24 01:16:15;;;;;;;4.65;4.32;;;;;;;;;;4998149;28;20671;-74
2023/08/24 01:18:43;;;;;;;6.57;4.30;;;;;;;;;;4997947;28;20222;-74
2023/08/24 01:21:09;;;;;;;6.50;4.60;;;;;;;;;;4998193;28;20323;-74
2023/08/24 01:23:53;;;;;;;5.80;4.18;;;;;;;;;;4997927;28;20580;-74
2023/08/24 01:26:21;;;;;;;5.43;4.93;;;;;;;;;;4998532;28;20206;-75
2023/08/24 01:28:48;;;;;;;7.45;5.22;;;;;;;;;;4997897;28;20219;-75
2023/08/24 01:31:16;;;;;;;6.25;4.60;;;;;;;;;;4998064;28;20253;-74
2023/08/24 01:33:42;;;;;;;6.20;5.20;;;;;;;;;;4998076;28;20234;-73
2023/08/24 01:36:09;;;;;;;7.25;5.60;;;;;;;;;;4995856;28;20203;-74
2023/08/24 01:38:35;;;;;;;6.00;5.18;;;;;;;;;;4995037;28;20230;-75
2023/08/24 01:41:08;;;;;;;7.78;5.38;;;;;;;;;;4995254;28;20210;-74
2023/08/24 01:43:36;;;;;;;7.70;4.80;;;;;;;;;;4994856;28;20199;-75
2023/08/24 01:46:05;;;;;;;7.07;5.43;;;;;;;;;;4995105;28;20207;-75
2023/08/24 01:48:31;;;;;;;5.38;4.97;;;;;;;;;;4994798;28;20231;-74
2023/08/24 01:50:57;;;;;;;8.10;4.90;;;;;;;;;;4994822;28;20218;-75
2023/08/24 01:53:24;;;;;;;5.32;4.93;;;;;;;;;;4994814;28;20218;-76
2023/08/24 01:55:50;;;;;;;5.68;5.18;;;;;;;;;;4994955;28;20203;-74
2023/08/24 01:58:16;;;;;;;5.63;4.78;;;;;;;;;;4994436;28;20222;-74
2023/08/24 02:00:44;;;;;;;5.22;4.72;;;;;;;;;;4994916;28;20207;-76
2023/08/24 02:03:10;;;;;;;6.13;5.07;;;;;;;;;;4994690;28;20213;-75
2023/08/24 02:05:37;;;;;;;6.80;4.72;;;;;;;;;;4994492;28;20230;-74
2023/08/24 02:08:03;;;;;;;10.10;5.30;;;;;;;;;;4994689;28;20337;-75
2023/08/24 02:10:29;;;;;;;4.85;4.47;;;;;;;;;;4994656;28;20225;-75
2023/08/24 02:12:56;;;;;;;9.55;5.25;;;;;;;;;;4994519;28;20203;-75
2023/08/24 02:15:23;;;;;;;6.57;4.88;;;;;;;;;;4994574;28;20210;-74
2023/08/24 02:17:50;;;;;;;5.50;4.97;;;;;;;;;;4994192;28;20285;-75
2023/08/24 02:20:17;;;;;;;5.63;5.28;;;;;;;;;;4993850;28;20203;-75
2023/08/24 02:22:43;;;;;;;6.53;5.03;;;;;;;;;;4994046;28;20214;-75
2023/08/24 02:25:10;;;;;;;5.65;5.15;;;;;;;;;;4994204;28;20234;-75
2023/08/24 02:27:36;;;;;;;5.30;4.80;;;;;;;;;;4994064;28;20199;-75
2023/08/24 02:30:04;;;;;;;5.45;5.05;;;;;;;;;;4993770;28;20213;-75
2023/08/24 02:32:30;;;;;;;5.78;5.18;;;;;;;;;;4993899;28;20203;-75
2023/08/24 02:34:57;;;;;;;6.65;4.88;;;;;;;;;;4994071;28;20203;-75
2023/08/24 02:37:24;;;;;;;5.32;4.93;;;;;;;;;;4993957;28;20207;-74
2023/08/24 02:39:50;;;;;;;5.75;5.18;;;;;;;;;;4993682;28;20573;-76
2023/08/24 02:42:16;;;;;;;5.75;5.35;;;;;;;;;;4993752;28;20203;-74
2023/08/24 02:44:59;;;;;;;5.85;4.90;;;;;;;;;;4993684;28;20227;-74
2023/08/24 02:47:25;;;;;;;5.68;4.88;;;;;;;;;;4992425;28;20203;-75
2023/08/24 02:49:51;;;;;;;5.22;4.93;;;;;;;;;;4993197;28;20734;-74
2023/08/24 02:55:22;;;;;;;5.65;4.57;;;;;;;;;;4993022;28;20201;-75
2023/08/24 02:57:48;;;;;;;5.68;5.00;;;;;;;;;;4993282;28;20218;-75
2023/08/24 03:00:14;;;;;;;6.65;5.20;;;;;;;;;;4993443;28;20203;-75
2023/08/24 03:02:41;;;;;;;5.70;5.00;;;;;;;;;;4978905;28;20200;-74
2023/08/24 03:05:07;;;;;;;6.38;5.25;;;;;;;;;;4973871;28;20227;-74
2023/08/24 03:07:33;;;;;;;5.50;5.03;;;;;;;;;;4973593;28;20702;-75
2023/08/24 03:10:00;;;;;;;6.28;5.45;;;;;;;;;;4973789;28;20215;-75
2023/08/24 03:12:27;;;;;;;5.53;5.05;;;;;;;;;;4974167;28;20199;-74
2023/08/24 03:14:54;;;;;;;7.63;5.22;;;;;;;;;;4973816;28;20203;-74
2023/08/24 03:17:20;;;;;;;8.30;5.40;;;;;;;;;;4973631;28;20204;-74
2023/08/24 03:19:47;;;;;;;7.05;5.40;;;;;;;;;;4973228;28;20247;-75
2023/08/24 03:22:13;;;;;;;6.80;5.30;;;;;;;;;;4973482;28;20207;-74
2023/08/24 03:24:39;;;;;;;5.95;5.53;;;;;;;;;;4973427;28;20726;-75
2023/08/24 03:27:05;;;;;;;6.90;5.28;;;;;;;;;;4973696;28;20215;-75
2023/08/24 03:29:33;;;;;;;5.88;5.38;;;;;;;;;;4973269;28;20228;-75
2023/08/24 03:31:59;;;;;;;6.30;5.90;;;;;;;;;;4973447;28;20289;-74
2023/08/24 03:34:27;;;;;;;6.80;6.13;;;;;;;;;;4973372;28;20199;-74
2023/08/24 03:36:53;;;;;;;7.72;6.15;;;;;;;;;;4973295;28;20227;-75
2023/08/24 03:39:19;;;;;;;7.35;6.35;;;;;;;;;;4973084;28;20739;-74
2023/08/24 03:41:45;;;;;;;6.55;5.95;;;;;;;;;;4973563;28;20203;-74
2023/08/24 03:44:12;;;;;;;6.38;5.55;;;;;;;;;;4973497;28;20204;-75
2023/08/24 03:46:39;;;;;;;9.68;6.05;;;;;;;;;;4973360;28;20215;-75
2023/08/24 03:49:06;;;;;;;5.88;5.40;;;;;;;;;;4972751;28;20596;-75
2023/08/24 03:51:32;;;;;;;6.15;5.65;;;;;;;;;;4972877;28;20203;-74
2023/08/24 03:53:58;;;;;;;7.10;6.50;;;;;;;;;;4973252;28;20203;-75
2023/08/24 03:56:24;;;;;;;6.60;6.00;;;;;;;;;;4972898;28;20691;-75
2023/08/24 03:58:51;;;;;;;11.75;6.15;;;;;;;;;;4972412;28;20223;-74
2023/08/24 04:01:17;;;;;;;6.45;5.95;;;;;;;;;;4973262;28;20208;-75
2023/08/24 04:03:44;;;;;;;8.80;6.30;;;;;;;;;;4973121;28;20212;-74
2023/08/24 04:06:11;;;;;;;6.40;5.68;;;;;;;;;;4973136;28;20220;-74
2023/08/24 04:08:37;;;;;;;6.50;5.93;;;;;;;;;;4972726;28;20235;-74
2023/08/24 04:11:03;;;;;;;7.53;6.20;;;;;;;;;;4973036;28;20211;-75
2023/08/24 04:13:30;;;;;;;6.88;6.20;;;;;;;;;;4972930;28;20207;-74
2023/08/24 04:15:56;;;;;;;10.50;6.10;;;;;;;;;;4972868;28;20203;-66
2023/08/24 04:18:22;;;;;;;10.65;7.20;;;;;;;;;;4972367;28;20751;-65
2023/08/24 04:20:52;;;;;;;9.30;7.18;;;;;;;;;;4972559;28;20212;-66
2023/08/24 04:23:18;;;;;;;7.68;6.30;;;;;;;;;;4973179;28;20203;-66
2023/08/24 04:25:44;;;;;;;9.25;6.93;;;;;;;;;;4972894;28;20227;-66
2023/08/24 04:28:11;;;;;;;8.02;6.93;;;;;;;;;;4972493;28;20247;-65
2023/08/24 04:30:38;;;;;;;7.47;6.78;;;;;;;;;;4972528;28;20211;-65
2023/08/24 04:33:05;;;;;;;10.18;6.40;;;;;;;;;;4972535;28;20210;-64
2023/08/24 04:35:34;;;;;;;8.23;6.45;;;;;;;;;;4972426;28;20203;-65
2023/08/24 04:38:02;;;;;;;7.38;6.75;;;;;;;;;;4972271;28;20577;-66
2023/08/24 04:40:28;;;;;;;10.50;6.35;;;;;;;;;;4972533;28;20227;-65
2023/08/24 04:42:54;;;;;;;6.65;6.00;;;;;;;;;;4972620;28;20502;-66
2023/08/24 04:45:21;;;;;;;6.68;5.88;;;;;;;;;;4972389;28;20227;-66
2023/08/24 04:47:47;;;;;;;8.07;6.18;;;;;;;;;;4972222;28;20204;-66
2023/08/24 04:50:13;;;;;;;7.15;6.43;;;;;;;;;;4972348;28;20203;-66
2023/08/24 04:52:40;;;;;;;8.93;5.72;;;;;;;;;;4972424;28;20211;-66
2023/08/24 04:55:09;;;;;;;6.63;5.63;;;;;;;;;;4972483;28;20295;-66
2023/08/24 04:57:35;;;;;;;8.38;6.30;;;;;;;;;;4972266;28;20207;-66
2023/08/24 05:00:05;;;;;;;7.15;6.45;;;;;;;;;;4972050;28;20208;-65
2023/08/24 05:02:31;;;;;;;6.90;6.03;;;;;;;;;;4972251;28;20211;-65
2023/08/24 05:04:57;;;;;;;6.82;6.22;;;;;;;;;;4972355;28;20227;-65
2023/08/24 05:07:24;;;;;;;9.20;6.88;;;;;;;;;;4972438;28;20210;-65
2023/08/24 05:09:50;;;;;;;9.35;6.78;;;;;;;;;;4972053;28;20605;-65
2023/08/24 05:12:17;;;;;;;15.32;6.90;;;;;;;;;;4975183;28;20211;-65
2023/08/24 05:14:44;;;;;;;7.10;6.55;;;;;;;;;;4975897;28;20215;-65
2023/08/24 05:17:10;;;;;;;8.18;6.65;;;;;;;;;;4975720;28;20672;-65
2023/08/24 05:19:36;;;;;;;6.80;6.25;;;;;;;;;;4975561;28;20224;-66
2023/08/24 05:22:02;;;;;;;8.25;7.55;;;;;;;;;;4975917;28;20207;-65
2023/08/24 05:24:29;;;;;;;7.97;6.90;;;;;;;;;;4975758;28;20216;-65
2023/08/24 05:26:55;;;;;;;9.32;6.50;;;;;;;;;;4975428;28;20595;-65
2023/08/24 05:29:23;;;;;;;9.13;6.53;;;;;;;;;;4975282;28;20228;-65
2023/08/24 05:31:49;;;;;;;9.23;6.72;;;;;;;;;;4975499;28;20211;-66
2023/08/24 05:34:15;;;;;;;12.13;7.03;;;;;;;;;;4975643;28;20231;-66
2023/08/24 05:36:41;;;;;;;11.18;7.10;;;;;;;;;;4975491;28;20200;-65
2023/08/24 05:39:08;;;;;;;8.63;6.13;;;;;;;;;;4975214;28;20231;-65
2023/08/24 05:41:36;;;;;;;7.70;6.47;;;;;;;;;;4975411;28;20206;-65
2023/08/24 05:44:02;;;;;;;7.00;6.38;;;;;;;;;;4975473;28;20359;-65
2023/08/24 05:46:30;;;;;;;7.55;6.45;;;;;;;;;;4975461;28;20239;-65
2023/08/24 05:48:56;;;;;;;8.20;6.20;;;;;;;;;;4975214;28;20223;-65
2023/08/24 05:51:23;;;;;;;9.32;6.45;;;;;;;;;;4975285;28;20211;-65
2023/08/24 05:53:49;;;;;;;10.63;6.18;;;;;;;;;;4975580;28;20226;-65
2023/08/24 05:56:15;;;;;;;8.82;6.57;;;;;;;;;;4988191;28;20214;-64
2023/08/24 05:58:41;;;;;;;8.95;6.55;;;;;;;;;;4988134;28;20625;-66
2023/08/24 06:01:08;;;;;;;8.93;7.05;;;;;;;;;;4988933;28;20207;-66
2023/08/24 06:03:36;;;;;;;7.25;6.75;;;;;;;;;;4988227;28;20234;-65
2023/08/24 06:06:03;;;;;;;6.82;6.22;;;;;;;;;;4985110;28;20227;-65
2023/08/24 06:08:29;;;;;;;8.57;6.53;;;;;;;;;;4985604;28;20301;-67
2023/08/24 06:10:56;;;;;;;7.40;6.70;;;;;;;;;;4985813;28;20219;-65
2023/08/24 06:13:22;;;;;;;13.63;7.10;;;;;;;;;;4971763;28;20212;-67
2023/08/24 06:15:48;;;;;;;8.00;6.38;;;;;;;;;;4966863;28;20212;-66
2023/08/24 06:18:15;;;;;;;11.27;7.28;;;;;;;;;;4965881;28;20227;-65
2023/08/24 06:20:43;;;;;;;8.85;7.07;;;;;;;;;;4966341;28;20219;-66
2023/08/24 06:23:09;;;;;;;7.85;6.35;;;;;;;;;;4966489;28;20431;-66
2023/08/24 06:25:36;;;;;;;7.65;6.15;;;;;;;;;;4966458;28;20231;-66
2023/08/24 06:28:04;;;;;;;10.95;7.18;;;;;;;;;;4965998;28;20232;-65
2023/08/24 06:30:32;;;;;;;8.73;6.55;;;;;;;;;;4965682;28;20227;-65
2023/08/24 06:32:59;;;;;;;7.72;6.45;;;;;;;;;;4966003;28;20714;-65
2023/08/24 06:35:25;;;;;;;12.55;6.38;;;;;;;;;;4965426;28;20207;-65
2023/08/24 06:37:53;;;;;;;9.25;6.38;;;;;;;;;;4966117;28;20223;-65
2023/08/24 06:40:19;;;;;;;6.95;6.45;;;;;;;;;;4966237;28;20298;-65
2023/08/24 06:42:46;;;;;;;6.90;6.30;;;;;;;;;;4966158;28;20218;-66
2023/08/24 06:45:12;;;;;;;9.02;6.65;;;;;;;;;;4967657;28;20586;-68
2023/08/24 06:47:39;;;;;;;7.57;6.88;;;;;;;;;;4966930;28;20605;-67
2023/08/24 06:50:06;;;;;;;6.75;6.13;;;;;;;;;;4968432;28;20306;-67
2023/08/24 06:52:32;;;;;;;11.70;6.03;;;;;;;;;;4967253;28;20329;-67
2023/08/24 06:55:01;;;;;;;10.88;6.68;;;;;;;;;;4967279;28;20306;-67
2023/08/24 06:57:27;;;;;;;17.77;6.95;;;;;;;;;;4967154;28;20218;-65
2023/08/24 06:59:53;;;;;;;8.05;6.60;;;;;;;;;;4973782;28;20230;-66
2023/08/24 07:02:20;;;;;;;9.07;6.80;;;;;;;;;;4986650;28;20215;-67
2023/08/24 07:04:46;;;;;;;11.50;6.20;;;;;;;;;;4979976;28;20212;-67
2023/08/24 07:07:12;;;;;;;9.43;6.40;;;;;;;;;;4986089;28;20689;-66
2023/08/24 07:09:39;;;;;;;6.63;6.03;;;;;;;;;;4979975;28;20236;-67
2023/08/24 07:12:09;;;;;;;9.13;5.80;;;;;;;;;;4967044;28;20219;-67
2023/08/24 07:14:36;;;;;;;6.78;5.95;;;;;;;;;;4983076;28;20601;-68
2023/08/24 07:17:02;;;;;;;7.15;5.97;;;;;;;;;;4984618;28;20213;-66
2023/08/24 07:19:28;;;;;;;7.35;5.82;;;;;;;;;;4966791;28;20259;-66
2023/08/24 07:21:55;;;;;;;7.00;5.38;;;;;;;;;;4971435;28;20215;-67
2023/08/24 07:24:26;;;;;;;6.20;5.35;;;;;;;;;;4986174;28;20233;-66
2023/08/24 07:26:52;;;;;;;7.20;5.07;;;;;;;;;;4986278;28;20232;-66
2023/08/24 07:29:19;;;;;;;10.30;6.03;;;;;;;;;;4985566;28;20227;-66
2023/08/24 07:31:46;;;;;;;6.50;5.88;;;;;;;;;;4977086;28;20215;-66
2023/08/24 07:34:12;;;;;;;7.03;4.93;;;;;;;;;;4984565;28;20222;-66
2023/08/24 07:36:38;;;;;;;6.10;5.07;;;;;;;;;;4983452;28;20202;-66
2023/08/24 07:39:05;;;;;;;5.38;4.85;;;;;;;;;;4984845;28;20262;-66
2023/08/24 07:41:31;;;;;;;4.70;4.30;;;;;;;;;;4985513;28;20241;-67
2023/08/24 07:43:57;;;;;;;10.30;5.43;;;;;;;;;;4985158;28;20218;-67
2023/08/24 07:46:25;;;;;;;5.30;4.72;;;;;;;;;;4985102;28;20668;-66
2023/08/24 07:48:51;;;;;;;5.38;4.88;;;;;;;;;;4979382;28;20226;-65
2023/08/24 07:51:18;;;;;;;7.88;5.13;;;;;;;;;;4966498;28;20208;-65
2023/08/24 07:53:44;;;;;;;10.88;5.70;;;;;;;;;;4966486;28;20714;-65
2023/08/24 07:56:10;;;;;;;7.00;5.10;;;;;;;;;;4966122;28;20219;-64
2023/08/24 07:58:37;;;;;;;12.40;5.28;;;;;;;;;;4965945;28;20230;-64
2023/08/24 08:01:03;;;;;;;8.63;5.22;;;;;;;;;;4965775;28;20218;-65
2023/08/24 08:03:32;;;;;;;9.77;5.40;;;;;;;;;;4965235;28;20246;-64
2023/08/24 08:05:58;;;;;;;7.22;5.43;;;;;;;;;;4965498;28;20230;-67
2023/08/24 08:08:24;;;;;;;11.18;5.78;;;;;;;;;;4965894;28;20326;-64
2023/08/24 08:10:58;;;;;;;10.65;6.90;;;;;;;;;;4965089;28;20207;-64
2023/08/24 08:13:24;;;;;;;14.27;6.28;;;;;;;;;;4965831;28;20234;-63
2023/08/24 08:15:50;;;;;;;17.90;6.35;;;;;;;;;;4965124;28;20230;-63
2023/08/24 08:18:17;;;;;;;6.95;5.68;;;;;;;;;;4966071;28;20223;-65
2023/08/24 08:20:44;;;;;;;14.73;5.45;;;;;;;;;;4985355;28;20217;-65
2023/08/24 08:23:10;;;;;;;9.15;5.25;;;;;;;;;;4985621;28;20226;-66
2023/08/24 08:25:37;;;;;;;11.70;5.38;;;;;;;;;;4985622;28;20518;-66
2023/08/24 08:28:04;;;;;;;7.97;5.28;;;;;;;;;;4984677;28;21074;-67
2023/08/24 08:30:30;;;;;;;7.22;5.43;;;;;;;;;;4984682;28;20210;-65
2023/08/24 08:32:56;;;;;;;10.55;4.93;;;;;;;;;;4984393;28;20209;-66
2023/08/24 08:35:23;;;;;;;7.50;5.38;;;;;;;;;;4984532;28;20690;-66
2023/08/24 08:37:53;;;;;;;9.10;4.63;;;;;;;;;;4986634;28;20761;-65
2023/08/24 08:40:20;;;;;;;8.07;4.95;;;;;;;;;;4985851;28;20257;-66
2023/08/24 08:51:55;;;;;;;8.98;4.40;;;;;;;;;;4972729;28;20221;-61
2023/08/24 08:54:22;;;;;;;8.15;4.43;;;;;;;;;;4983660;28;20214;-61
2023/08/24 08:56:49;;;;;;;8.57;4.45;;;;;;;;;;4975346;28;20663;-61
2023/08/24 08:59:16;;;;;;;5.65;3.83;;;;;;;;;;4988373;28;20226;-62
2023/08/24 09:01:43;;;;;;;6.32;4.38;;;;;;;;;;4988159;28;20309;-63
2023/08/24 09:04:10;;;;;;;10.60;4.68;;;;;;;;;;4988066;28;20214;-60
2023/08/24 09:06:36;;;;;;;9.98;4.13;;;;;;;;;;4987906;28;20706;-62
2023/08/24 09:09:03;;;;;;;6.78;4.15;;;;;;;;;;4988702;28;20231;-60
2023/08/24 09:11:30;;;;;;;4.85;3.90;;;;;;;;;;4985936;28;20314;-62
2023/08/24 09:13:56;;;;;;;6.15;4.15;;;;;;;;;;4968713;28;20660;-61
2023/08/24 09:16:23;;;;;;;8.73;4.60;;;;;;;;;;4968611;28;20216;-60
2023/08/24 09:18:49;;;;;;;9.40;4.10;;;;;;;;;;4968439;28;20238;-61
2023/08/24 09:21:16;;;;;;;6.93;4.07;;;;;;;;;;4968347;28;20309;-60
2023/08/24 09:23:44;;;;;;;5.28;4.35;;;;;;;;;;4968605;28;20232;-60
2023/08/24 09:26:10;;;;;;;8.13;3.97;;;;;;;;;;4968016;28;20301;-61
2023/08/24 09:28:39;;;;;;;7.20;4.20;;;;;;;;;;4968060;28;20497;-70
2023/08/24 09:31:05;;;;;;;9.77;3.70;;;;;;;;;;4976046;28;20289;-67
2023/08/24 09:33:31;;;;;;;4.40;3.60;;;;;;;;;;4972473;28;20210;-65
2023/08/24 09:36:01;;;;;;;6.22;4.15;;;;;;;;;;4968378;28;20631;-66
2023/08/24 09:38:27;;;;;;;6.03;3.40;;;;;;;;;;4968449;28;20770;-66
2023/08/24 09:40:54;;;;;;;7.22;3.88;;;;;;;;;;4968102;28;20227;-67
2023/08/24 09:43:21;;;;;;;6.70;4.10;;;;;;;;;;4969027;28;20246;-67
2023/08/24 09:45:53;;;;;;;4.88;4.00;;;;;;;;;;4967839;28;20223;-67
2023/08/24 09:48:19;;;;;;;7.15;3.90;;;;;;;;;;4969270;28;20231;-66
2023/08/24 09:50:46;;;;;;;5.63;4.05;;;;;;;;;;4988542;28;20226;-66
2023/08/24 09:53:15;;;;;;;6.25;3.92;;;;;;;;;;4987311;28;20551;-65
2023/08/24 09:55:43;;;;;;;5.45;3.95;;;;;;;;;;4977870;28;20215;-67
2023/08/24 09:58:10;;;;;;;4.93;3.75;;;;;;;;;;4973912;28;20226;-68
2023/08/24 10:00:37;;;;;;;10.15;4.32;;;;;;;;;;4987237;28;20211;-67
2023/08/24 10:03:05;;;;;;;5.20;4.25;;;;;;;;;;4986934;28;20218;-66
2023/08/24 10:05:32;;;;;;;5.63;3.92;;;;;;;;;;4987494;28;20241;-68
2023/08/24 10:07:59;;;;;;;10.98;4.32;;;;;;;;;;4975857;28;20226;-67
2023/08/24 10:10:27;;;;;;;4.43;3.70;;;;;;;;;;4967795;28;20215;-66
2023/08/24 10:12:57;;;;;;;11.68;4.40;;;;;;;;;;4974104;28;20755;-68
2023/08/24 10:15:24;;;;;;;6.53;4.45;;;;;;;;;;4978213;28;20214;-68
2023/08/24 10:17:51;;;;;;;5.85;4.35;;;;;;;;;;4978089;28;20222;-66
2023/08/24 10:20:18;;;;;;;10.68;4.60;;;;;;;;;;4987030;28;20261;-66
2023/08/24 10:22:46;;;;;;;7.95;4.55;;;;;;;;;;4987213;28;20691;-67
2023/08/24 10:25:14;;;;;;;4.85;4.30;;;;;;;;;;4987547;28;20211;-66
2023/08/24 10:27:43;;;;;;;7.78;4.70;;;;;;;;;;4987131;28;20754;-66
2023/08/24 10:30:10;;;;;;;8.40;4.22;;;;;;;;;;4968356;28;20222;-67
2023/08/24 10:32:37;;;;;;;5.80;4.95;;;;;;;;;;4979474;28;20218;-67
2023/08/24 10:35:04;;;;;;;13.70;4.70;;;;;;;;;;4968191;28;20211;-68
2023/08/24 10:37:34;;;;;;;10.52;4.55;;;;;;;;;;4968139;28;20215;-68
2023/08/24 10:40:00;;;;;;;10.05;4.70;;;;;;;;;;4967600;28;20218;-67
2023/08/24 10:42:26;;;;;;;5.07;4.60;;;;;;;;;;4968099;28;20215;-68
2023/08/24 10:44:53;;;;;;;5.28;4.78;;;;;;;;;;4967511;28;20215;-67
2023/08/24 10:47:20;;;;;;;5.35;4.72;;;;;;;;;;4967234;28;20290;-66
2023/08/24 10:49:58;;;;;;;4.68;4.38;;;;;;;;;;4972209;28;20743;-68
2023/08/24 10:52:25;;;;;;;4.57;4.18;;;;;;;;;;4967789;28;20218;-67
2023/08/24 10:54:53;;;;;;;9.52;5.13;;;;;;;;;;4973415;28;20706;-66
2023/08/24 10:57:20;;;;;;;4.93;4.60;;;;;;;;;;4980792;28;20210;-69
2023/08/24 10:59:57;;;;;;;9.32;4.70;;;;;;;;;;4986080;28;20230;-66
2023/08/24 11:02:25;;;;;;;6.43;5.00;;;;;;;;;;4986546;28;20894;-67
2023/08/24 11:05:06;;;;;;;10.10;5.10;;;;;;;;;;4986565;28;20214;-65
2023/08/24 11:07:32;;;;;;;6.65;4.88;;;;;;;;;;4967823;28;20231;-67
2023/08/24 11:10:00;;;;;;;6.90;4.65;;;;;;;;;;4966576;28;20258;-66
2023/08/24 11:12:27;;;;;;;8.75;5.00;;;;;;;;;;4967871;28;20207;-66
2023/08/24 11:14:58;;;;;;;8.02;4.55;;;;;;;;;;4976924;28;20217;-66
2023/08/24 11:17:28;;;;;;;9.60;5.00;;;;;;;;;;4967528;28;20242;-66
2023/08/24 11:19:55;;;;;;;7.97;4.40;;;;;;;;;;4975037;28;20238;-69
2023/08/24 11:22:22;;;;;;;6.78;4.90;;;;;;;;;;4968058;28;20231;-67
2023/08/24 11:24:48;;;;;;;6.70;4.72;;;;;;;;;;4967405;28;20734;-67
2023/08/24 11:27:16;;;;;;;5.65;4.50;;;;;;;;;;4982826;28;20227;-66
2023/08/24 11:29:42;;;;;;;6.50;4.25;;;;;;;;;;4985345;28;20794;-67
2023/08/24 11:32:08;;;;;;;7.97;4.75;;;;;;;;;;4985405;28;20248;-67
2023/08/24 11:34:35;;;;;;;9.30;4.75;;;;;;;;;;4985662;28;20590;-68
2023/08/24 11:37:02;;;;;;;5.88;4.55;;;;;;;;;;4985411;28;20289;-67
2023/08/24 11:39:31;;;;;;;8.15;5.07;;;;;;;;;;4984939;28;20226;-67
2023/08/24 11:41:58;;;;;;;7.30;4.30;;;;;;;;;;4984724;28;20210;-66
2023/08/24 11:44:25;;;;;;;11.27;4.53;;;;;;;;;;4985513;28;20269;-67
2023/08/24 11:46:52;;;;;;;11.00;4.63;;;;;;;;;;4985127;28;20219;-67
2023/08/24 11:49:18;;;;;;;5.72;4.68;;;;;;;;;;4975964;28;20590;-67
2023/08/24 11:51:44;;;;;;;12.68;5.47;;;;;;;;;;4966570;28;20531;-67
2023/08/24 11:54:11;;;;;;;8.10;5.28;;;;;;;;;;4966559;28;20215;-67
2023/08/24 11:56:41;;;;;;;6.55;4.65;;;;;;;;;;4966129;28;20211;-67
2023/08/24 11:59:11;;;;;;;7.55;4.75;;;;;;;;;;4965707;28;20258;-66
2023/08/24 12:01:39;;;;;;;8.65;4.75;;;;;;;;;;4979742;28;20230;-70
2023/08/24 12:04:06;;;;;;;7.20;4.47;;;;;;;;;;4985619;28;20298;-65
2023/08/24 12:06:33;;;;;;;5.03;4.60;;;;;;;;;;4981007;28;20214;-67
2023/08/24 12:08:59;;;;;;;5.30;4.43;;;;;;;;;;4972303;28;20238;-66
2023/08/24 12:11:26;;;;;;;5.70;4.57;;;;;;;;;;4965593;28;20218;-66
2023/08/24 12:13:53;;;;;;;5.00;4.50;;;;;;;;;;4978494;28;20238;-67
2023/08/24 12:16:20;;;;;;;11.30;5.05;;;;;;;;;;4985522;28;20521;-67
2023/08/24 12:18:49;;;;;;;11.07;4.63;;;;;;;;;;4985110;28;20269;-66
2023/08/24 12:21:15;;;;;;;6.25;4.28;;;;;;;;;;4985756;28;20217;-66
2023/08/24 12:23:41;;;;;;;6.88;4.25;;;;;;;;;;4975852;28;20273;-67
2023/08/24 12:26:08;;;;;;;9.02;4.57;;;;;;;;;;4981657;28;20319;-66
2023/08/24 12:28:34;;;;;;;4.93;4.47;;;;;;;;;;4970501;28;20227;-66
2023/08/24 12:31:03;;;;;;;7.93;5.00;;;;;;;;;;4967009;28;20637;-66
2023/08/24 12:33:29;;;;;;;8.93;4.60;;;;;;;;;;4976947;28;20269;-66
2023/08/24 12:35:58;;;;;;;8.82;4.72;;;;;;;;;;4984452;28;20210;-66
2023/08/24 12:38:25;;;;;;;9.52;4.60;;;;;;;;;;4976585;28;20227;-67
2023/08/24 12:40:51;;;;;;;6.72;4.38;;;;;;;;;;4965872;28;20219;-66
2023/08/24 12:43:17;;;;;;;6.03;4.53;;;;;;;;;;4966145;28;20699;-65
2023/08/24 12:45:44;;;;;;;11.88;4.60;;;;;;;;;;4964888;28;20218;-66
2023/08/24 12:48:10;;;;;;;5.60;4.00;;;;;;;;;;4964799;28;20278;-64
2023/08/24 12:50:38;;;;;;;11.27;4.05;;;;;;;;;;4975057;28;20206;-66
2023/08/24 12:53:06;;;;;;;7.10;3.85;;;;;;;;;;4984462;28;20234;-66
2023/08/24 12:55:32;;;;;;;13.23;4.65;;;;;;;;;;4984727;28;20321;-66
2023/08/24 12:57:58;;;;;;;9.80;4.30;;;;;;;;;;4984925;28;20513;-66
2023/08/24 13:00:26;;;;;;;9.85;4.50;;;;;;;;;;4984835;28;20249;-66
2023/08/24 13:02:52;;;;;;;17.13;5.22;;;;;;;;;;4975422;28;20282;-66
2023/08/24 13:05:19;;;;;;;12.43;4.20;;;;;;;;;;4965541;28;20207;-66
2023/08/24 13:07:45;;;;;;;9.52;4.45;;;;;;;;;;4965794;28;20648;-65
2023/08/24 13:10:14;;;;;;;8.38;4.45;;;;;;;;;;4965701;28;20212;-65
2023/08/24 13:12:40;;;;;;;10.65;4.25;;;;;;;;;;4984171;28;20218;-66
2023/08/24 13:15:07;;;;;;;14.63;4.95;;;;;;;;;;4978966;28;20215;-65
2023/08/24 13:17:33;;;;;;;10.07;4.60;;;;;;;;;;4975742;28;20257;-68
2023/08/24 13:19:59;;;;;;;8.65;4.70;;;;;;;;;;4983809;28;20725;-66
2023/08/24 13:22:26;;;;;;;15.52;4.38;;;;;;;;;;4978932;28;20683;-66
2023/08/24 13:24:52;;;;;;;8.73;4.47;;;;;;;;;;4985185;28;20305;-67
2023/08/24 13:27:20;;;;;;;8.95;4.22;;;;;;;;;;4974166;28;20212;-66
2023/08/24 13:29:46;;;;;;;7.55;4.00;;;;;;;;;;4965236;28;20231;-66
2023/08/24 13:32:12;;;;;;;9.65;4.78;;;;;;;;;;4970418;28;20576;-66
2023/08/24 13:34:38;;;;;;;12.48;4.50;;;;;;;;;;4968689;28;20815;-66
2023/08/24 13:37:05;;;;;;;7.60;4.18;;;;;;;;;;4968866;28;20220;-67
2023/08/24 13:39:32;;;;;;;13.18;4.22;;;;;;;;;;4971266;28;20226;-67
2023/08/24 13:41:58;;;;;;;14.02;4.78;;;;;;;;;;4968355;28;20599;-67
2023/08/24 13:44:26;;;;;;;10.85;4.57;;;;;;;;;;4968258;28;20218;-69
2023/08/24 13:46:52;;;;;;;8.40;4.35;;;;;;;;;;4968168;28;20215;-66
2023/08/24 13:49:19;;;;;;;15.68;4.45;;;;;;;;;;4968077;28;20289;-66
2023/08/24 13:51:46;;;;;;;13.95;4.20;;;;;;;;;;4974178;28;20366;-67
2023/08/24 13:54:15;;;;;;;11.02;4.65;;;;;;;;;;4972110;28;20297;-66
2023/08/24 13:56:42;;;;;;;9.75;4.47;;;;;;;;;;4968789;28;20290;-67
2023/08/24 13:59:08;;;;;;;15.00;4.68;;;;;;;;;;4985561;28;20971;-66
2023/08/24 14:01:35;;;;;;;13.35;4.90;;;;;;;;;;4987511;28;20214;-67
2023/08/24 14:04:02;;;;;;;10.45;4.65;;;;;;;;;;4987918;28;20210;-66
2023/08/24 14:06:28;;;;;;;17.55;4.65;;;;;;;;;;4986989;28;20651;-66
2023/08/24 14:08:55;;;;;;;18.63;4.30;;;;;;;;;;4979669;28;20614;-67
2023/08/24 14:11:21;;;;;;;10.95;4.93;;;;;;;;;;4987578;28;20214;-68
2023/08/24 14:13:47;;;;;;;12.55;4.45;;;;;;;;;;4988054;28;20222;-66
2023/08/24 14:16:13;;;;;;;9.50;4.45;;;;;;;;;;4987499;28;20215;-65
2023/08/24 14:18:41;;;;;;;13.23;4.40;;;;;;;;;;4967080;28;20235;-65
2023/08/24 14:21:07;;;;;;;21.08;4.97;;;;;;;;;;4968165;28;20675;-66
2023/08/24 14:23:33;;;;;;;15.30;4.28;;;;;;;;;;4968313;28;20215;-66
2023/08/24 14:26:00;;;;;;;7.55;4.20;;;;;;;;;;4968198;28;20223;-66
2023/08/24 14:28:46;;;;;;;14.27;4.47;;;;;;;;;;4973004;28;20293;-67
2023/08/24 14:31:12;;;;;;;12.65;4.57;;;;;;;;;;4968042;28;20219;-66
2023/08/24 14:33:38;;;;;;;9.65;4.07;;;;;;;;;;4967271;28;20215;-66
2023/08/24 14:36:06;;;;;;;10.25;4.13;;;;;;;;;;4967828;28;20580;-67
2023/08/24 14:38:32;;;;;;;8.75;4.15;;;;;;;;;;4967040;28;20772;-66
2023/08/24 14:41:00;;;;;;;15.00;4.15;;;;;;;;;;4968271;28;20223;-67
2023/08/24 14:43:27;;;;;;;20.70;5.28;;;;;;;;;;4969234;28;20297;-67
2023/08/24 14:45:53;;;;;;;17.45;4.75;;;;;;;;;;4968996;28;20448;-67
2023/08/24 14:48:19;;;;;;;14.35;4.50;;;;;;;;;;4968162;28;20235;-67
2023/08/24 14:50:46;;;;;;;12.25;4.45;;;;;;;;;;4968680;28;20215;-67